Time;durP1;ratioP1;P1;durP2;ratioP2;P2;SDS_P1;SDS_P2;PMS_P1;PMS_P2;Temp;Humidity;BMP_temperature;BMP_pressure;BME280_temperature;BME280_humidity;BME280_pressure;Samples;Min_cycle;Max_cycle;Signal;HPM_P1;HPM_P2
2023/04/22 00:00:57;;;;;;;19.63;13.95;;;;;;;8.97;93.60;100710.94;5091408;28;20024;-43
2023/04/22 00:03:22;;;;;;;20.90;14.95;;;;;;;8.91;93.66;100709.38;5090988;28;20101;-44
2023/04/22 00:05:48;;;;;;;20.27;14.00;;;;;;;8.98;93.89;100720.00;5091500;28;20039;-44
2023/04/22 00:08:13;;;;;;;20.38;15.07;;;;;;;8.96;93.98;100711.25;5089635;28;20040;-44
2023/04/22 00:10:39;;;;;;;19.92;15.02;;;;;;;8.90;93.58;100713.25;5091430;28;20115;-45
2023/04/22 00:13:04;;;;;;;20.02;13.88;;;;;;;8.87;93.94;100716.59;5091276;28;20020;-43
2023/04/22 00:15:29;;;;;;;20.70;15.48;;;;;;;8.83;93.89;100707.28;5089950;28;20056;-45
2023/04/22 00:17:57;;;;;;;21.50;15.52;;;;;;;8.76;94.57;100704.91;5089963;28;20056;-43
2023/04/22 00:20:22;;;;;;;21.13;14.80;;;;;;;8.79;94.59;100712.56;5091381;28;20051;-44
2023/04/22 00:22:48;;;;;;;21.17;15.02;;;;;;;8.75;94.83;100706.00;5091060;28;20073;-43
2023/04/22 00:25:13;;;;;;;20.83;15.10;;;;;;;8.76;94.61;100704.91;5090655;28;20029;-43
2023/04/22 00:27:38;;;;;;;22.40;15.35;;;;;;;8.75;94.86;100703.25;5092846;28;20024;-44
2023/04/22 00:30:05;;;;;;;20.88;15.30;;;;;;;8.72;94.94;100710.19;5094900;28;20036;-44
2023/04/22 00:32:30;;;;;;;21.02;14.88;;;;;;;8.68;95.00;100711.06;5077901;28;20036;-45
2023/04/22 00:34:56;;;;;;;20.83;14.45;;;;;;;8.69;95.05;100709.97;5092983;28;20097;-44
2023/04/22 00:37:22;;;;;;;21.42;14.43;;;;;;;8.67;95.40;100713.00;5095208;28;20027;-43
2023/04/22 00:39:48;;;;;;;20.73;14.57;;;;;;;8.65;95.27;100703.38;5094685;28;20060;-43
2023/04/22 00:42:14;;;;;;;20.65;14.98;;;;;;;8.64;95.48;100708.09;5094446;28;20073;-45
2023/04/22 00:44:40;;;;;;;21.42;14.90;;;;;;;8.64;96.16;100705.34;5077667;28;20036;-46
2023/04/22 00:47:07;;;;;;;20.67;15.15;;;;;;;8.58;95.55;100707.34;5074489;28;20028;-43
2023/04/22 00:49:34;;;;;;;21.25;15.48;;;;;;;8.55;95.88;100710.69;5084659;28;20091;-46
2023/04/22 00:51:59;;;;;;;22.27;14.48;;;;;;;8.54;96.31;100709.03;5094486;28;20410;-45
2023/04/22 00:54:24;;;;;;;20.45;14.45;;;;;;;8.52;96.48;100707.69;5094743;28;20036;-43
2023/04/22 00:56:50;;;;;;;21.30;15.52;;;;;;;8.47;96.17;100708.59;5094799;28;20111;-44
2023/04/22 00:59:15;;;;;;;22.42;15.20;;;;;;;8.42;96.29;100712.19;5094567;28;20039;-44
2023/04/22 01:01:42;;;;;;;21.35;15.25;;;;;;;8.40;96.62;100706.16;5093237;28;20024;-43
2023/04/22 01:04:09;;;;;;;20.98;14.60;;;;;;;8.46;97.01;100708.81;5093013;28;20119;-44
2023/04/22 01:06:36;;;;;;;22.92;14.18;;;;;;;8.41;96.52;100709.72;5094355;28;20136;-43
2023/04/22 01:09:01;;;;;;;20.65;14.32;;;;;;;8.43;96.85;100707.50;5094242;28;20070;-44
2023/04/22 01:11:27;;;;;;;20.30;14.43;;;;;;;8.36;96.81;100696.81;5094340;28;20113;-44
2023/04/22 01:13:52;;;;;;;20.80;15.00;;;;;;;8.36;96.72;100704.28;5094209;28;20441;-46
2023/04/22 01:16:17;;;;;;;20.20;14.35;;;;;;;8.33;97.01;100705.69;5094505;28;20115;-44
2023/04/22 01:18:43;;;;;;;21.08;15.07;;;;;;;8.34;97.24;100698.22;5094096;28;20036;-44
2023/04/22 01:21:08;;;;;;;20.85;14.80;;;;;;;8.33;97.20;100693.84;5094251;28;20027;-43
2023/04/22 01:23:34;;;;;;;20.15;14.10;;;;;;;8.29;97.35;100690.84;5094074;28;20436;-44
2023/04/22 01:25:59;;;;;;;21.67;14.13;;;;;;;8.34;97.35;100692.72;5094124;28;20021;-44
2023/04/22 01:28:25;;;;;;;21.40;14.50;;;;;;;8.36;98.05;100705.09;5092706;28;20032;-44
2023/04/22 01:30:51;;;;;;;20.95;14.27;;;;;;;8.34;97.85;100695.47;5094393;28;20035;-44
2023/04/22 01:33:17;;;;;;;19.95;13.80;;;;;;;8.32;98.17;100695.78;5093785;28;20020;-44
2023/04/22 01:35:44;;;;;;;20.48;14.32;;;;;;;8.28;98.62;100691.97;5093839;28;20047;-45
2023/04/22 01:38:11;;;;;;;20.13;13.80;;;;;;;8.32;99.21;100693.03;5092758;28;20019;-46
2023/04/22 01:40:37;;;;;;;20.10;13.35;;;;;;;8.34;98.97;100688.03;5093658;28;20043;-43
2023/04/22 01:43:04;;;;;;;20.80;15.00;;;;;;;8.34;98.93;100692.72;5093974;28;20073;-43
2023/04/22 01:45:30;;;;;;;20.17;14.18;;;;;;;8.33;98.92;100685.56;5089416;28;20035;-44
2023/04/22 01:47:56;;;;;;;21.05;15.18;;;;;;;8.24;98.99;100680.72;5093739;28;20069;-43
2023/04/22 01:50:22;;;;;;;20.13;14.93;;;;;;;8.32;99.27;100693.03;5093505;28;20035;-43
2023/04/22 01:52:48;;;;;;;20.40;14.70;;;;;;;8.32;99.59;100684.75;5093546;28;20031;-43
2023/04/22 01:55:13;;;;;;;20.48;14.18;;;;;;;8.27;99.45;100677.38;5093239;28;20028;-43
2023/04/22 01:57:39;;;;;;;23.77;16.77;;;;;;;8.33;99.55;100683.66;5093769;28;20093;-43
2023/04/22 02:00:05;;;;;;;20.70;14.63;;;;;;;8.36;99.88;100679.47;5093355;28;20031;-43
2023/04/22 02:02:30;;;;;;;21.33;14.13;;;;;;;8.39;99.70;100667.88;5093563;28;20074;-44
2023/04/22 02:04:56;;;;;;;20.35;13.40;;;;;;;8.41;99.94;100679.38;5093331;28;20063;-43
2023/04/22 02:07:21;;;;;;;20.95;14.77;;;;;;;8.38;99.59;100682.75;5091908;28;20062;-43
2023/04/22 02:09:47;;;;;;;20.73;15.13;;;;;;;8.36;99.99;100679.47;5093245;28;20032;-42
2023/04/22 02:12:12;;;;;;;21.40;14.73;;;;;;;8.35;100.00;100675.06;5093259;28;20032;-42
2023/04/22 02:14:37;;;;;;;20.08;14.00;;;;;;;8.35;100.00;100675.06;5093023;28;20381;-45
2023/04/22 02:17:03;;;;;;;19.83;14.40;;;;;;;8.31;100.00;100669.31;5093339;28;20032;-42
2023/04/22 02:19:28;;;;;;;20.55;14.27;;;;;;;8.38;100.00;100667.03;5092990;28;20024;-45
2023/04/22 02:21:54;;;;;;;21.95;14.15;;;;;;;8.38;100.00;100669.78;5093215;28;20381;-44
2023/04/22 02:24:19;;;;;;;19.48;13.43;;;;;;;8.38;100.00;100674.50;5092875;28;20024;-46
2023/04/22 02:26:46;;;;;;;20.17;13.73;;;;;;;8.38;100.00;100674.50;5092913;28;20020;-42
2023/04/22 02:29:12;;;;;;;20.38;13.57;;;;;;;8.37;100.00;100664.56;5093020;28;20413;-41
2023/04/22 02:31:37;;;;;;;19.98;13.55;;;;;;;8.35;100.00;100673.16;5092856;28;20047;-42
2023/04/22 02:34:03;;;;;;;20.63;13.95;;;;;;;8.37;100.00;100675.59;5092794;28;20406;-42
2023/04/22 02:36:30;;;;;;;20.35;14.32;;;;;;;8.35;100.00;100664.03;5092751;28;20034;-43
2023/04/22 02:38:56;;;;;;;19.83;14.52;;;;;;;8.30;100.00;100656.66;5092954;28;20050;-43
2023/04/22 02:41:21;;;;;;;20.08;14.15;;;;;;;8.39;100.00;100659.59;5087917;28;20743;-43
2023/04/22 02:43:46;;;;;;;21.00;14.63;;;;;;;8.38;100.00;100657.94;5092701;28;20084;-44
2023/04/22 02:46:12;;;;;;;20.10;14.38;;;;;;;8.37;100.00;100662.63;5092532;28;20035;-43
2023/04/22 02:48:38;;;;;;;19.85;14.40;;;;;;;8.35;100.00;100653.84;5092363;28;20401;-42
2023/04/22 02:51:05;;;;;;;20.88;14.60;;;;;;;8.33;100.00;100653.31;5072221;28;20040;-42
2023/04/22 02:53:30;;;;;;;20.63;14.18;;;;;;;8.37;100.00;100648.03;5072118;28;20055;-42
2023/04/22 02:55:57;;;;;;;20.65;14.32;;;;;;;8.40;100.00;100640.00;5072107;28;20056;-44
2023/04/22 02:58:22;;;;;;;20.50;14.13;;;;;;;8.40;100.00;100639.19;5071937;28;20035;-43
2023/04/22 03:00:48;;;;;;;21.27;14.60;;;;;;;8.41;100.00;100649.06;5089703;28;20103;-42
2023/04/22 03:03:14;;;;;;;20.65;14.38;;;;;;;8.27;100.00;100627.75;5092405;28;20023;-42
2023/04/22 03:05:39;;;;;;;20.83;14.80;;;;;;;8.40;100.00;100647.44;5092285;28;20558;-44
2023/04/22 03:08:04;;;;;;;20.40;13.88;;;;;;;8.40;100.00;100641.94;5092417;28;20036;-43
2023/04/22 03:10:31;;;;;;;20.38;14.75;;;;;;;8.43;100.00;100639.41;5090082;28;20361;-42
2023/04/22 03:12:56;;;;;;;20.65;14.52;;;;;;;8.47;100.00;100641.56;5090646;28;20187;-42
2023/04/22 03:15:21;;;;;;;20.55;15.55;;;;;;;8.45;100.00;100647.38;5091767;28;20051;-42
2023/04/22 03:17:47;;;;;;;20.73;14.45;;;;;;;8.44;100.00;100645.72;5091760;28;20040;-43
2023/04/22 03:20:12;;;;;;;20.95;14.57;;;;;;;8.45;100.00;100639.09;5091588;28;20055;-44
2023/04/22 03:22:37;;;;;;;20.85;14.70;;;;;;;8.49;100.00;100634.69;5092029;28;20042;-44
2023/04/22 03:25:03;;;;;;;20.23;14.68;;;;;;;8.46;100.00;100640.75;5091861;28;20473;-45
2023/04/22 03:27:28;;;;;;;21.38;15.23;;;;;;;8.50;100.00;100635.47;5090620;28;20118;-43
2023/04/22 03:29:54;;;;;;;20.38;14.93;;;;;;;8.51;100.00;100634.38;5090036;28;20055;-42
2023/04/22 03:32:19;;;;;;;21.23;15.48;;;;;;;8.52;100.00;100625.78;5091554;28;20040;-43
2023/04/22 03:34:44;;;;;;;21.65;15.13;;;;;;;8.53;100.00;100618.34;5091294;28;20024;-43
2023/04/22 03:37:09;;;;;;;21.30;15.70;;;;;;;8.52;100.00;100614.75;5090767;28;20057;-42
2023/04/22 03:39:35;;;;;;;21.50;15.73;;;;;;;8.51;100.00;100615.06;5087688;28;20020;-46
2023/04/22 03:42:00;;;;;;;21.38;16.05;;;;;;;8.50;100.00;100617.00;5091487;28;20020;-44
2023/04/22 03:44:25;;;;;;;21.67;16.20;;;;;;;8.51;100.00;100621.38;5091412;28;20032;-43
2023/04/22 03:46:51;;;;;;;22.30;16.38;;;;;;;8.45;100.00;100608.78;5090404;28;20107;-44
2023/04/22 03:49:16;;;;;;;20.98;14.98;;;;;;;8.45;100.00;100605.22;5091470;28;20181;-46
2023/04/22 03:51:41;;;;;;;21.15;15.77;;;;;;;8.53;100.00;100613.66;5091814;28;20466;-45
2023/04/22 03:54:07;;;;;;;21.50;14.73;;;;;;;8.56;100.00;100612.22;5091482;28;20039;-43
2023/04/22 03:56:32;;;;;;;20.85;14.98;;;;;;;8.59;100.00;100608.88;5091405;28;20070;-45
2023/04/22 03:58:57;;;;;;;21.50;15.38;;;;;;;8.60;100.00;100604.19;5091231;28;20035;-43
2023/04/22 04:01:23;;;;;;;21.15;15.88;;;;;;;8.55;100.00;100589.34;5091611;28;20020;-45
2023/04/22 04:03:48;;;;;;;20.95;14.90;;;;;;;8.61;100.00;100598.38;5095560;28;20031;-43
2023/04/22 04:06:13;;;;;;;21.35;15.60;;;;;;;8.57;100.00;100606.44;5095496;28;20093;-43
2023/04/22 04:08:39;;;;;;;21.92;15.15;;;;;;;8.52;100.00;100603.72;5095706;28;20035;-42
2023/04/22 04:11:04;;;;;;;21.85;15.95;;;;;;;8.49;100.00;100601.59;5095713;28;20405;-50
2023/04/22 04:13:31;;;;;;;22.08;16.42;;;;;;;8.48;100.00;100599.13;5095512;28;20541;-43
2023/04/22 04:15:58;;;;;;;21.52;15.95;;;;;;;8.51;100.00;100595.78;5095549;28;20060;-46
2023/04/22 04:18:24;;;;;;;21.35;15.60;;;;;;;8.51;100.00;100587.50;5095377;28;20042;-46
2023/04/22 04:20:49;;;;;;;21.17;15.65;;;;;;;8.51;100.00;100585.56;5095608;28;20443;-46
2023/04/22 04:23:15;;;;;;;21.23;15.32;;;;;;;8.50;100.00;100594.94;5095376;28;20028;-43
2023/04/22 04:25:41;;;;;;;22.05;15.55;;;;;;;8.50;100.00;100594.94;5095238;28;20035;-45
2023/04/22 04:28:10;;;;;;;20.88;15.60;;;;;;;8.46;100.00;100587.53;5095610;28;20040;-47
2023/04/22 04:30:36;;;;;;;22.35;15.63;;;;;;;8.46;100.00;100593.88;5095150;28;20046;-43
2023/04/22 04:33:05;;;;;;;21.38;15.57;;;;;;;8.47;100.00;100595.56;5094425;28;20028;-43
2023/04/22 04:35:34;;;;;;;21.60;16.10;;;;;;;8.46;100.00;100593.88;5090971;28;20040;-45
2023/04/22 04:38:01;;;;;;;21.27;15.43;;;;;;;8.46;100.00;100588.38;5094888;28;20105;-43
2023/04/22 04:40:28;;;;;;;20.63;15.15;;;;;;;8.41;100.00;100578.22;5094736;28;20052;-46
2023/04/22 04:42:54;;;;;;;22.23;15.93;;;;;;;8.49;100.00;100585.06;5094874;28;20036;-43
2023/04/22 04:45:20;;;;;;;21.70;16.10;;;;;;;8.48;100.00;100594.44;5087046;28;20466;-45
2023/04/22 04:47:45;;;;;;;22.48;16.35;;;;;;;8.47;100.00;100586.41;5074385;28;20058;-43
2023/04/22 04:50:11;;;;;;;22.42;16.38;;;;;;;8.47;100.00;100586.41;5080593;28;20346;-43
2023/04/22 04:52:36;;;;;;;22.23;17.13;;;;;;;8.45;100.00;100588.66;5094925;28;20065;-43
2023/04/22 04:55:01;;;;;;;23.23;18.20;;;;;;;8.42;100.00;100590.06;5094702;28;20088;-42
2023/04/22 04:57:27;;;;;;;22.55;17.13;;;;;;;8.42;100.00;100590.06;5094864;28;20370;-42
2023/04/22 04:59:52;;;;;;;22.40;17.02;;;;;;;8.46;100.00;100593.88;5094247;28;20146;-44
2023/04/22 05:02:18;;;;;;;22.88;16.80;;;;;;;8.50;100.00;100596.88;5094527;28;20115;-42
2023/04/22 05:04:43;;;;;;;23.25;17.55;;;;;;;8.50;100.00;100591.38;5094252;28;20036;-44
2023/04/22 05:07:08;;;;;;;22.73;17.33;;;;;;;8.47;100.00;100592.78;5094510;28;20027;-44
2023/04/22 05:09:36;;;;;;;22.67;17.35;;;;;;;8.47;100.00;100595.56;5093449;28;20444;-44
2023/04/22 05:12:02;;;;;;;22.83;17.50;;;;;;;8.42;100.00;100593.66;5074206;28;20027;-46
2023/04/22 05:14:29;;;;;;;23.45;17.15;;;;;;;8.43;100.00;100578.75;5073923;28;20082;-44
2023/04/22 05:16:55;;;;;;;23.10;17.30;;;;;;;8.51;100.00;100598.53;5093379;28;20042;-45
2023/04/22 05:19:20;;;;;;;22.00;17.25;;;;;;;8.46;100.00;100596.63;5094327;28;20115;-46
2023/04/22 05:21:45;;;;;;;23.95;18.65;;;;;;;8.47;100.00;100603.81;5094201;28;20052;-44
2023/04/22 05:24:10;;;;;;;24.48;18.48;;;;;;;8.48;100.00;100588.91;5094280;28;20026;-42
2023/04/22 05:26:36;;;;;;;24.17;18.05;;;;;;;8.54;100.00;100587.72;5094103;28;20040;-44
2023/04/22 05:29:01;;;;;;;23.17;17.67;;;;;;;8.58;100.00;100586.00;5094035;28;20028;-45
2023/04/22 05:31:27;;;;;;;23.20;17.73;;;;;;;8.58;100.00;100591.53;5093802;28;20415;-44
2023/04/22 05:33:53;;;;;;;24.80;18.35;;;;;;;8.60;100.00;100585.72;5092008;28;20032;-46
2023/04/22 05:36:18;;;;;;;22.45;17.38;;;;;;;8.63;100.00;100589.78;5088119;28;20069;-43
2023/04/22 05:38:43;;;;;;;23.27;18.00;;;;;;;8.63;100.00;100590.63;5093280;28;20040;-44
2023/04/22 05:41:09;;;;;;;23.70;18.23;;;;;;;8.64;100.00;100586.75;5093457;28;20512;-44
2023/04/22 05:43:34;;;;;;;23.38;18.08;;;;;;;8.68;100.00;100587.78;5093173;28;20081;-50
2023/04/22 05:45:59;;;;;;;24.05;18.45;;;;;;;8.72;100.00;100590.75;5092957;28;20027;-44
2023/04/22 05:48:24;;;;;;;24.85;18.58;;;;;;;8.76;100.00;100593.72;5093298;28;20480;-46
2023/04/22 05:50:50;;;;;;;23.60;19.38;;;;;;;8.77;100.00;100589.84;5093246;28;20072;-46
2023/04/22 05:53:15;;;;;;;24.48;20.15;;;;;;;8.79;100.00;100588.44;5093304;28;20047;-44
2023/04/22 05:55:40;;;;;;;25.63;20.05;;;;;;;8.85;100.00;100594.69;5090552;28;20048;-44
2023/04/22 05:58:06;;;;;;;24.98;20.77;;;;;;;8.88;100.00;100589.38;5093158;28;20024;-44
2023/04/22 06:00:31;;;;;;;26.58;20.15;;;;;;;8.88;100.00;100583.06;5092859;28;20017;-44
2023/04/22 06:02:56;;;;;;;25.05;20.20;;;;;;;8.92;100.00;100584.09;5093258;28;20055;-45
2023/04/22 06:05:22;;;;;;;25.08;20.33;;;;;;;8.97;100.00;100577.69;5092949;28;20377;-44
2023/04/22 06:07:47;;;;;;;25.73;20.63;;;;;;;9.00;100.00;100579.81;5093017;28;20127;-43
2023/04/22 06:10:12;;;;;;;24.73;20.10;;;;;;;9.06;100.00;100573.13;5092699;28;20367;-46
2023/04/22 06:12:37;;;;;;;26.70;21.80;;;;;;;9.15;100.00;100573.22;5092834;28;20047;-47
2023/04/22 06:15:04;;;;;;;26.30;22.20;;;;;;;9.23;100.00;100569.75;5092123;28;20107;-46
2023/04/22 06:17:29;;;;;;;26.85;22.85;;;;;;;9.30;100.00;100561.91;5093029;28;20031;-43
2023/04/22 06:19:54;;;;;;;29.67;24.33;;;;;;;9.34;100.00;100568.44;5092737;28;20024;-43
2023/04/22 06:22:19;;;;;;;29.58;24.17;;;;;;;9.42;100.00;100564.19;5092648;28;20461;-44
2023/04/22 06:24:45;;;;;;;29.38;24.45;;;;;;;9.46;100.00;100567.94;5092043;28;20043;-46
2023/04/22 06:27:10;;;;;;;28.95;24.75;;;;;;;9.54;100.00;100565.63;5092720;28;20524;-43
2023/04/22 06:29:35;;;;;;;29.27;25.02;;;;;;;9.61;100.00;100569.59;5092747;28;20039;-47
2023/04/22 06:32:02;;;;;;;28.65;23.90;;;;;;;9.70;100.00;100563.34;5092738;28;20598;-47
2023/04/22 06:34:27;;;;;;;27.88;24.27;;;;;;;9.76;100.00;100560.19;5090298;28;20516;-43
2023/04/22 06:36:53;;;;;;;27.88;23.15;;;;;;;9.89;100.00;100552.19;5090089;28;20100;-45
2023/04/22 06:39:18;;;;;;;28.52;22.42;;;;;;;10.04;100.00;100559.34;5092382;28;20024;-43
2023/04/22 06:41:44;;;;;;;32.10;23.80;;;;;;;10.14;100.00;100553.59;5092012;28;20043;-43
2023/04/22 06:44:10;;;;;;;28.35;23.92;;;;;;;10.26;100.00;100564.13;5092222;28;20020;-45
2023/04/22 06:46:35;;;;;;;28.40;24.15;;;;;;;10.33;100.00;100561.72;5092404;28;20106;-44
2023/04/22 06:49:00;;;;;;;29.55;24.58;;;;;;;10.42;100.00;100559.88;5092292;28;20392;-43
2023/04/22 06:51:25;;;;;;;29.45;25.50;;;;;;;10.48;100.00;100557.81;5092198;28;20433;-43
2023/04/22 06:53:51;;;;;;;28.98;24.65;;;;;;;10.57;100.00;100555.94;5092263;28;20028;-47
2023/04/22 06:56:16;;;;;;;30.05;25.38;;;;;;;10.64;100.00;100552.75;5091731;28;20024;-45
2023/04/22 06:58:41;;;;;;;30.02;24.98;;;;;;;10.69;100.00;100544.31;5089179;28;20357;-44
2023/04/22 07:01:07;;;;;;;29.75;25.08;;;;;;;10.79;100.00;100545.19;5091894;28;20028;-43
2023/04/22 07:03:32;;;;;;;29.70;24.67;;;;;;;10.79;100.00;100532.19;5091924;28;20034;-43
2023/04/22 07:05:57;;;;;;;29.73;24.27;;;;;;;10.90;100.00;100541.88;5091965;28;20027;-43
2023/04/22 07:08:23;;;;;;;30.10;24.50;;;;;;;10.97;100.00;100548.91;5089555;28;20381;-43
2023/04/22 07:10:48;;;;;;;30.70;25.33;;;;;;;11.08;100.00;100561.34;5091966;28;20060;-44
2023/04/22 07:13:13;;;;;;;26.60;21.38;;;;;;;11.29;98.03;100556.09;5088550;28;20031;-42
2023/04/22 07:15:39;;;;;;;29.42;24.88;;;;;;;11.43;100.00;100544.09;5089809;28;20044;-43
2023/04/22 07:18:04;;;;;;;30.13;25.50;;;;;;;11.53;100.00;100546.56;5090246;28;20107;-43
2023/04/22 07:20:29;;;;;;;27.92;23.83;;;;;;;11.57;100.00;100541.22;5090184;28;20215;-42
2023/04/22 07:22:55;;;;;;;30.00;24.40;;;;;;;11.64;100.00;100542.38;5090397;28;20024;-43
2023/04/22 07:25:20;;;;;;;28.33;22.45;;;;;;;11.75;100.00;100536.53;5090245;28;20016;-42
2023/04/22 07:27:45;;;;;;;27.35;21.83;;;;;;;11.79;99.82;100530.03;5090095;28;20036;-43
2023/04/22 07:30:12;;;;;;;28.17;21.67;;;;;;;11.88;99.29;100532.84;5090069;28;20043;-42
2023/04/22 07:32:37;;;;;;;26.75;21.80;;;;;;;11.93;98.54;100542.97;5087292;28;20028;-43
2023/04/22 07:35:03;;;;;;;27.75;21.98;;;;;;;11.91;98.25;100526.63;5088374;28;20039;-43
2023/04/22 07:37:28;;;;;;;27.33;22.00;;;;;;;12.00;98.71;100543.31;5085476;28;20143;-43
2023/04/22 07:39:53;;;;;;;28.55;22.38;;;;;;;12.04;99.61;100543.50;5088868;28;20536;-42
2023/04/22 07:42:19;;;;;;;27.35;22.10;;;;;;;12.08;99.97;100542.53;5089048;28;20453;-43
2023/04/22 07:44:44;;;;;;;27.35;22.13;;;;;;;12.14;98.93;100545.97;5088963;28;20027;-43
2023/04/22 07:47:10;;;;;;;29.15;23.15;;;;;;;12.17;99.01;100539.78;5088272;28;20032;-49
2023/04/22 07:49:35;;;;;;;19.42;13.60;;;;;;;12.36;95.59;100544.19;5090225;28;20081;-43
2023/04/22 07:52:00;;;;;;;18.38;12.93;;;;;;;12.75;93.40;100556.25;5088402;28;20721;-43
2023/04/22 07:54:26;;;;;;;21.38;13.45;;;;;;;13.18;91.17;100560.06;5090295;28;20032;-43
2023/04/22 07:56:51;;;;;;;19.00;13.27;;;;;;;13.55;88.76;100552.16;5090152;28;20032;-43
2023/04/22 07:59:16;;;;;;;18.63;12.13;;;;;;;14.34;85.35;100549.72;5090044;28;20081;-43
2023/04/22 08:01:41;;;;;;;18.45;12.13;;;;;;;15.24;80.76;100548.56;5090282;28;20051;-43
2023/04/22 08:04:07;;;;;;;19.08;11.60;;;;;;;16.15;75.59;100516.88;5088702;28;20024;-43
2023/04/22 08:06:32;;;;;;;18.52;11.88;;;;;;;17.08;71.64;100514.31;5090142;28;20020;-43
2023/04/22 08:08:58;;;;;;;17.33;11.50;;;;;;;17.93;68.04;100526.00;5089076;28;20473;-43
2023/04/22 08:11:23;;;;;;;17.60;11.50;;;;;;;18.59;64.84;100517.00;5090265;28;20036;-42
2023/04/22 08:13:48;;;;;;;16.73;11.32;;;;;;;19.22;62.17;100512.22;5090283;28;20020;-44
2023/04/22 08:16:14;;;;;;;18.25;11.27;;;;;;;19.78;59.94;100505.13;5090246;28;20128;-43
2023/04/22 08:18:39;;;;;;;16.73;11.70;;;;;;;20.13;58.52;100499.59;5090153;28;20035;-44
2023/04/22 08:21:05;;;;;;;19.48;11.88;;;;;;;20.21;57.74;100488.09;5089206;28;20435;-44
2023/04/22 08:23:31;;;;;;;16.50;11.32;;;;;;;20.44;57.04;100497.59;5089613;28;20032;-43
2023/04/22 08:25:56;;;;;;;16.83;11.48;;;;;;;20.67;56.05;100491.84;5088327;28;20027;-43
2023/04/22 08:28:21;;;;;;;15.55;10.68;;;;;;;20.90;55.20;100494.53;5090272;28;20028;-44
2023/04/22 08:30:47;;;;;;;16.15;10.70;;;;;;;21.13;54.29;100497.16;5088706;28;20520;-45
2023/04/22 08:33:12;;;;;;;15.77;10.60;;;;;;;21.32;53.61;100503.75;5070670;28;20108;-44
2023/04/22 08:35:37;;;;;;;16.38;11.05;;;;;;;21.49;52.90;100494.66;5069587;28;20037;-44
2023/04/22 08:38:03;;;;;;;17.05;10.63;;;;;;;21.55;52.63;100488.69;5086990;28;20028;-43
2023/04/22 08:40:28;;;;;;;16.15;10.63;;;;;;;21.61;52.32;100495.56;5089703;28;20488;-45
2023/04/22 08:42:54;;;;;;;15.50;10.63;;;;;;;21.59;52.13;100486.72;5089458;28;20143;-44
2023/04/22 08:45:21;;;;;;;14.40;10.23;;;;;;;21.47;52.20;100482.19;5089506;28;20504;-44
2023/04/22 08:47:47;;;;;;;15.90;11.02;;;;;;;21.57;51.86;100497.53;5074127;28;20071;-43
2023/04/22 08:50:13;;;;;;;14.60;10.70;;;;;;;21.49;51.86;100482.59;5072988;28;20139;-43
2023/04/22 08:52:40;;;;;;;16.65;10.77;;;;;;;21.34;52.00;100471.25;5073151;28;20495;-43
2023/04/22 08:55:06;;;;;;;16.67;10.93;;;;;;;21.29;52.16;100471.59;5072490;28;20052;-44
2023/04/22 08:57:32;;;;;;;15.10;10.73;;;;;;;21.11;52.57;100453.75;5071367;28;20398;-43
2023/04/22 08:59:58;;;;;;;16.30;10.80;;;;;;;21.04;52.59;100448.88;5073102;28;20308;-44
2023/04/22 09:02:25;;;;;;;16.60;11.23;;;;;;;20.82;53.26;100450.69;5083807;28;20478;-45
2023/04/22 09:04:52;;;;;;;16.30;10.98;;;;;;;20.94;53.10;100443.94;5093224;28;20028;-47
2023/04/22 09:07:26;;;;;;;14.70;10.80;;;;;;;20.89;53.16;100450.75;5093036;28;20062;-44
2023/04/22 09:09:51;;;;;;;;;;;;;;;20.71;57.62;100453.34;5093718;28;20032;-45
2023/04/22 09:12:17;;;;;;;15.68;10.70;;;;;;;20.87;53.19;100451.13;5092928;28;20369;-45
2023/04/22 09:14:43;;;;;;;15.90;10.50;;;;;;;20.95;52.67;100448.38;5092821;28;20061;-44
2023/04/22 09:17:09;;;;;;;21.88;11.02;;;;;;;20.93;52.79;100450.75;5093272;28;20155;-46
2023/04/22 09:19:34;;;;;;;18.60;10.80;;;;;;;21.03;52.36;100450.88;5091469;28;20047;-45
2023/04/22 09:21:59;;;;;;;18.10;10.50;;;;;;;21.13;52.02;100442.94;5092515;28;20032;-45
2023/04/22 09:24:25;;;;;;;16.35;10.35;;;;;;;21.15;51.62;100443.34;5092542;28;20028;-45
2023/04/22 09:26:50;;;;;;;17.92;10.45;;;;;;;21.14;51.65;100445.34;5092354;28;20089;-45
2023/04/22 09:29:16;;;;;;;14.55;10.45;;;;;;;21.15;51.49;100441.34;5091080;28;20413;-46
2023/04/22 09:31:41;;;;;;;16.48;10.50;;;;;;;21.16;51.33;100442.16;5090365;28;20031;-45
2023/04/22 09:34:07;;;;;;;17.05;10.30;;;;;;;21.08;51.56;100446.91;5092179;28;20081;-44
2023/04/22 09:36:33;;;;;;;19.95;10.57;;;;;;;21.03;51.78;100442.44;5092100;28;20039;-42
2023/04/22 09:39:03;;;;;;;19.40;11.00;;;;;;;21.07;52.76;100436.84;5092345;28;20485;-44
2023/04/22 09:41:30;;;;;;;22.75;11.02;;;;;;;21.07;53.27;100441.66;5091895;28;20070;-43
2023/04/22 09:43:56;;;;;;;31.58;11.82;;;;;;;21.02;53.92;100432.41;5090994;28;20028;-44
2023/04/22 09:46:24;;;;;;;19.33;11.05;;;;;;;20.93;54.44;100423.47;5092437;28;20028;-44
2023/04/22 09:48:50;;;;;;;19.25;13.10;;;;;;;20.13;57.13;100413.38;5091963;28;20060;-48
2023/04/22 09:51:16;;;;;;;20.55;13.38;;;;;;;19.60;59.05;100414.25;5092213;28;20578;-49
2023/04/22 09:53:42;;;;;;;21.13;13.52;;;;;;;19.13;60.50;100411.53;5073232;28;20039;-48
2023/04/22 09:56:08;;;;;;;21.02;13.95;;;;;;;18.85;62.35;100420.22;5071669;28;20032;-48
2023/04/22 09:58:38;;;;;;;19.10;12.98;;;;;;;18.59;62.89;100421.78;5071530;28;20549;-46
2023/04/22 10:01:04;;;;;;;21.05;13.35;;;;;;;18.45;65.25;100422.31;5078215;28;20048;-46
2023/04/22 10:03:29;;;;;;;19.35;12.45;;;;;;;18.35;64.30;100415.34;5091517;28;20024;-46
2023/04/22 10:05:56;;;;;;;20.48;12.98;;;;;;;18.10;63.61;100414.81;5091653;28;20101;-47
2023/04/22 10:08:22;;;;;;;18.75;12.68;;;;;;;18.07;66.34;100421.16;5091437;28;20135;-47
2023/04/22 10:10:47;;;;;;;21.17;13.63;;;;;;;18.00;64.43;100419.00;5089956;28;20111;-47
2023/04/22 10:13:13;;;;;;;21.33;13.60;;;;;;;18.07;67.24;100429.53;5091618;28;20036;-48
2023/04/22 10:15:51;;;;;;;20.92;13.70;;;;;;;18.02;66.83;100433.44;5090148;28;20355;-46
2023/04/22 10:18:21;;;;;;;21.10;13.95;;;;;;;17.90;68.32;100428.78;5089496;28;20028;-47
2023/04/22 10:20:48;;;;;;;21.15;13.85;;;;;;;17.90;68.94;100420.38;5089995;28;20035;-51
2023/04/22 10:23:18;;;;;;;22.27;13.68;;;;;;;17.99;68.38;100417.41;5089497;28;20032;-46
2023/04/22 10:25:47;;;;;;;21.38;13.48;;;;;;;18.13;66.48;100418.88;5089642;28;20035;-51
2023/04/22 10:28:15;;;;;;;19.92;13.15;;;;;;;18.15;65.19;100441.72;5089411;28;20369;-46
2023/04/22 10:30:41;;;;;;;20.80;13.50;;;;;;;18.15;65.45;100439.72;5089647;28;20039;-46
2023/04/22 10:33:30;;;;;;;20.17;12.73;;;;;;;18.15;65.29;100436.91;5087924;28;20017;-51
2023/04/22 10:36:08;;;;;;;20.77;13.55;;;;;;;18.18;65.19;100432.59;5089971;28;20083;-48
2023/04/22 10:38:35;;;;;;;21.35;14.00;;;;;;;18.25;65.87;100429.94;5090239;28;20036;-46
2023/04/22 10:41:02;;;;;;;20.45;13.30;;;;;;;18.43;64.80;100427.47;5088981;28;20097;-49
2023/04/22 10:43:47;;;;;;;20.80;13.40;;;;;;;18.68;65.01;100432.75;5090326;28;20081;-47
2023/04/22 10:46:35;;;;;;;20.90;13.27;;;;;;;18.73;64.95;100426.03;5090069;28;20036;-46
2023/04/22 10:49:11;;;;;;;20.60;14.05;;;;;;;18.69;64.78;100420.38;5090244;28;20059;-48
2023/04/22 10:51:40;;;;;;;20.58;13.75;;;;;;;18.69;64.51;100418.34;5090926;28;20042;-46
2023/04/22 10:54:07;;;;;;;19.10;12.90;;;;;;;18.62;64.76;100415.44;5090500;28;20044;-46
2023/04/22 10:56:32;;;;;;;19.52;12.43;;;;;;;18.60;64.11;100414.19;5090441;28;20381;-46
2023/04/22 10:58:58;;;;;;;20.73;12.75;;;;;;;18.46;62.45;100411.94;5090338;28;20026;-50
2023/04/22 11:01:26;;;;;;;19.95;12.05;;;;;;;18.33;62.67;100414.06;5090377;28;20072;-48
2023/04/22 11:03:51;;;;;;;20.00;12.35;;;;;;;18.13;63.17;100416.91;5090303;28;20054;-49